createdAt,value
2023-05-01T00:02:21.780Z,8.44
2023-05-01T00:07:25.499Z,8.39
2023-05-01T00:12:29.068Z,8.32
2023-05-01T00:17:32.004Z,8.27
2023-05-01T00:22:34.925Z,8.19
2023-05-01T00:27:37.845Z,8.10
2023-05-01T00:32:41.670Z,8.05
2023-05-01T00:37:45.119Z,7.99
2023-05-01T00:42:48.084Z,7.94
2023-05-01T00:47:51.204Z,7.83
2023-05-01T00:52:54.244Z,7.89
2023-05-01T00:57:57.526Z,7.83
2023-05-01T01:03:01.039Z,7.79
2023-05-01T01:08:31.325Z,7.77
2023-05-01T01:13:58.303Z,7.77
2023-05-01T01:19:37.546Z,7.75
2023-05-01T01:25:30.130Z,7.68
2023-05-01T01:31:17.644Z,7.60
2023-05-01T01:36:43.441Z,7.59
2023-05-01T01:41:52.904Z,7.58
2023-05-01T01:46:56.688Z,7.59
2023-05-01T01:52:02.617Z,7.58
2023-05-01T01:57:08.960Z,7.58
2023-05-01T02:02:14.094Z,7.59
2023-05-01T02:07:19.021Z,7.60
2023-05-01T02:12:26.895Z,7.61
2023-05-01T02:17:30.902Z,7.61
2023-05-01T02:22:34.423Z,7.62
2023-05-01T02:27:47.563Z,7.62
2023-05-01T02:32:50.906Z,7.60
2023-05-01T02:37:54.206Z,7.59
2023-05-01T02:42:58.794Z,7.56
2023-05-01T02:48:05.975Z,7.50
2023-05-01T02:53:09.727Z,7.47
2023-05-01T02:58:20.409Z,7.41
2023-05-01T03:03:23.439Z,7.31
2023-05-01T03:08:26.632Z,7.20
2023-05-01T03:13:29.906Z,7.09
2023-05-01T03:18:33.338Z,7.02
2023-05-01T03:23:38.425Z,6.96
2023-05-01T03:28:41.408Z,6.94
2023-05-01T03:33:44.272Z,6.88
2023-05-01T03:38:47.514Z,6.77
2023-05-01T03:43:50.817Z,6.68
2023-05-01T03:48:54.474Z,6.68
2023-05-01T03:53:58.897Z,6.68
2023-05-01T03:59:02.445Z,6.66
2023-05-01T04:04:05.855Z,6.78
2023-05-01T04:09:08.783Z,6.93
2023-05-01T04:14:11.738Z,7.01
2023-05-01T04:19:16.061Z,7.12
2023-05-01T04:24:19.046Z,7.20
2023-05-01T04:29:22.028Z,7.35
2023-05-01T04:34:25.885Z,7.45
2023-05-01T04:39:28.877Z,7.62
2023-05-01T04:44:34.275Z,7.75
2023-05-01T04:49:37.179Z,7.88
2023-05-01T04:54:40.144Z,8.09
2023-05-01T04:59:43.341Z,8.32
2023-05-01T05:04:46.272Z,8.55
2023-05-01T05:09:49.262Z,8.77
2023-05-01T05:14:52.190Z,9.01
2023-05-01T05:19:55.605Z,9.25
2023-05-01T05:25:04.182Z,9.49
2023-05-01T05:30:08.529Z,9.69
2023-05-01T05:35:11.638Z,9.93
2023-05-01T05:40:14.843Z,10.18
2023-05-01T05:45:17.868Z,10.46
2023-05-01T05:50:20.908Z,10.68
2023-05-01T05:55:23.863Z,10.87
2023-05-01T06:00:27.322Z,11.04
2023-05-01T06:05:30.507Z,11.14
2023-05-01T06:10:33.462Z,11.32
2023-05-01T06:15:38.372Z,11.44
2023-05-01T06:20:42.819Z,11.58
2023-05-01T06:25:47.087Z,11.78
2023-05-01T06:30:50.162Z,11.93
2023-05-01T06:35:54.634Z,12.17
2023-05-01T06:40:58.019Z,12.43
2023-05-01T06:46:01.449Z,12.67
2023-05-01T06:51:04.592Z,12.83
2023-05-01T06:56:08.826Z,12.97
2023-05-01T07:01:11.925Z,13.14
2023-05-01T07:06:15.230Z,13.35
2023-05-01T07:11:18.267Z,13.46
2023-05-01T07:16:21.783Z,13.54
2023-05-01T07:21:25.054Z,13.69
2023-05-01T07:26:28.165Z,13.85
2023-05-01T07:31:31.356Z,14.16
2023-05-01T07:36:34.449Z,14.42
2023-05-01T07:41:37.413Z,14.50
2023-05-01T07:46:40.758Z,14.62
2023-05-01T07:51:44.844Z,14.72
2023-05-01T07:56:49.677Z,14.75
2023-05-01T08:01:52.818Z,14.99
2023-05-01T08:06:55.880Z,15.12
2023-05-01T08:11:58.975Z,15.26
2023-05-01T08:17:01.902Z,15.36
2023-05-01T08:22:05.398Z,15.49
2023-05-01T08:27:09.482Z,15.50
2023-05-01T08:32:12.600Z,15.89
2023-05-01T08:37:15.770Z,16.09
2023-05-01T08:42:19.451Z,16.40
2023-05-01T08:47:22.944Z,16.76
2023-05-01T08:52:27.342Z,17.17
2023-05-01T08:57:31.955Z,17.31
2023-05-01T09:02:36.011Z,17.46
2023-05-01T09:07:40.954Z,17.60
2023-05-01T09:12:47.826Z,17.78
2023-05-01T09:17:51.311Z,17.89
2023-05-01T09:22:56.937Z,17.92
2023-05-01T09:28:00.082Z,18.08
2023-05-01T09:33:14.000Z,18.32
2023-05-01T09:38:27.891Z,18.33
2023-05-01T09:43:31.820Z,18.48
2023-05-01T09:48:36.269Z,18.69
2023-05-01T09:53:40.907Z,18.65
2023-05-01T09:58:44.563Z,18.91
2023-05-01T10:03:55.041Z,18.95
2023-05-01T10:08:58.207Z,19.25
2023-05-01T10:14:11.348Z,19.31
2023-05-01T10:19:17.502Z,19.09
2023-05-01T10:24:21.583Z,18.93
2023-05-01T10:29:27.988Z,18.64
2023-05-01T10:34:34.128Z,18.82
2023-05-01T10:39:37.453Z,19.20
2023-05-01T10:44:42.475Z,19.61
2023-05-01T10:50:11.398Z,20.08
2023-05-01T10:55:37.396Z,20.08
2023-05-01T11:00:41.413Z,20.08
2023-05-01T11:06:16.850Z,20.31
2023-05-01T11:11:22.971Z,20.39
2023-05-01T11:16:38.517Z,20.25
2023-05-01T11:21:42.198Z,20.37
2023-05-01T11:26:45.252Z,20.68
2023-05-01T11:31:49.010Z,21.00
2023-05-01T11:36:53.597Z,21.16
2023-05-01T11:42:09.962Z,21.55
2023-05-01T11:47:13.762Z,21.85
2023-05-01T11:52:17.516Z,21.20
2023-05-01T11:57:20.472Z,21.09
2023-05-01T12:02:23.758Z,21.26
2023-05-01T12:07:26.773Z,21.52
2023-05-01T12:12:30.312Z,22.05
2023-05-01T12:17:33.470Z,22.40
2023-05-01T12:22:50.454Z,23.20
2023-05-01T12:27:53.887Z,23.90
2023-05-01T12:32:58.614Z,24.48
2023-05-01T12:38:18.180Z,24.78
2023-05-01T12:43:29.807Z,25.62
2023-05-01T12:48:35.850Z,25.93
2023-05-01T12:53:44.714Z,25.64
2023-05-01T12:58:48.063Z,25.97
2023-05-01T13:03:51.332Z,26.34
2023-05-01T13:08:54.219Z,25.96
2023-05-01T13:14:11.713Z,25.04
2023-05-01T13:19:24.726Z,24.81
2023-05-01T13:24:41.858Z,24.78
2023-05-01T13:29:58.655Z,24.10
2023-05-01T13:35:02.986Z,23.93
2023-05-01T13:40:06.988Z,24.09
2023-05-01T13:45:11.428Z,23.92
2023-05-01T13:50:16.194Z,24.19
2023-05-01T13:55:21.851Z,24.61
2023-05-01T14:00:26.093Z,25.14
2023-05-01T14:05:29.117Z,25.42
2023-05-01T14:10:32.435Z,25.26
2023-05-01T14:15:36.041Z,25.08
2023-05-01T14:20:41.032Z,25.66
2023-05-01T14:25:46.644Z,25.71
2023-05-01T14:30:51.412Z,25.92
2023-05-01T14:35:55.419Z,25.46
2023-05-01T14:40:58.501Z,25.39
2023-05-01T14:46:01.483Z,25.03
2023-05-01T14:51:10.508Z,24.93
2023-05-01T14:56:13.582Z,25.00
2023-05-01T15:01:18.299Z,24.67
2023-05-01T15:06:21.828Z,24.61
2023-05-01T15:11:24.824Z,24.25
2023-05-01T15:16:28.032Z,23.85
2023-05-01T15:21:32.073Z,23.81
2023-05-01T15:26:35.012Z,23.78
2023-05-01T15:31:38.151Z,23.40
2023-05-01T15:36:41.767Z,23.31
2023-05-01T15:41:45.097Z,23.29
2023-05-01T15:46:56.155Z,23.06
2023-05-01T15:51:59.499Z,23.07
2023-05-01T15:57:03.279Z,22.93
2023-05-01T16:02:08.878Z,22.68
2023-05-01T16:07:13.364Z,22.38
2023-05-01T16:12:16.428Z,21.83
2023-05-01T16:17:19.777Z,21.43
2023-05-01T16:22:22.888Z,21.15
2023-05-01T16:27:25.881Z,20.91
2023-05-01T16:32:29.500Z,20.60
2023-05-01T16:37:34.189Z,20.29
2023-05-01T16:42:38.495Z,20.05
2023-05-01T16:47:41.534Z,19.84
2023-05-01T16:52:44.712Z,19.66
2023-05-01T16:57:48.144Z,19.46
2023-05-01T17:02:52.421Z,19.27
2023-05-01T17:07:55.404Z,19.05
2023-05-01T17:13:02.330Z,18.83
2023-05-01T17:18:05.907Z,18.63
2023-05-01T17:23:09.881Z,18.44
2023-05-01T17:28:12.907Z,18.35
2023-05-01T17:33:16.223Z,18.17
2023-05-01T17:38:19.393Z,18.01
2023-05-01T17:43:22.543Z,17.84
2023-05-01T17:48:25.718Z,17.64
2023-05-01T17:53:28.655Z,17.42
2023-05-01T17:58:31.973Z,17.20
2023-05-01T18:03:35.266Z,16.99
2023-05-01T18:08:38.390Z,16.75
2023-05-01T18:13:43.848Z,16.48
2023-05-01T18:18:49.621Z,16.16
2023-05-01T18:23:52.630Z,15.95
2023-05-01T18:28:55.871Z,15.70
2023-05-01T18:33:59.528Z,15.45
2023-05-01T18:39:02.424Z,15.32
2023-05-01T18:44:06.191Z,15.16
2023-05-01T18:49:11.018Z,15.02
2023-05-01T18:54:14.122Z,14.89
2023-05-01T18:59:19.513Z,14.73
2023-05-01T19:04:22.762Z,14.54
2023-05-01T19:09:25.909Z,14.40
2023-05-01T19:14:28.887Z,14.29
2023-05-01T19:19:31.872Z,14.14
2023-05-01T19:24:35.039Z,14.04
2023-05-01T19:29:39.820Z,13.84
2023-05-01T19:34:42.668Z,13.66
2023-05-01T19:39:45.999Z,13.51
2023-05-01T19:44:49.429Z,13.37
2023-05-01T19:49:52.388Z,13.18
2023-05-01T19:54:55.309Z,13.08
2023-05-01T20:00:01.200Z,12.90
2023-05-01T20:05:05.829Z,12.72
2023-05-01T20:10:09.781Z,12.55
2023-05-01T20:15:12.854Z,12.45
2023-05-01T20:20:20.034Z,12.33
2023-05-01T20:25:24.300Z,12.24
2023-05-01T20:30:27.199Z,12.17
2023-05-01T20:35:33.788Z,12.09
2023-05-01T20:40:40.893Z,12.05
2023-05-01T20:45:43.899Z,11.99
2023-05-01T20:50:48.349Z,11.93
2023-05-01T20:55:51.374Z,11.83
2023-05-01T21:00:55.894Z,11.68
2023-05-01T21:06:02.283Z,11.55
2023-05-01T21:11:06.001Z,11.43
2023-05-01T21:16:16.990Z,11.27
2023-05-01T21:21:19.712Z,11.20
2023-05-01T21:26:22.710Z,11.14
2023-05-01T21:31:34.487Z,11.11
2023-05-01T21:36:45.248Z,11.09
2023-05-01T21:41:49.533Z,11.04
2023-05-01T21:46:55.317Z,10.96
2023-05-01T21:52:00.023Z,10.88
2023-05-01T21:57:05.760Z,10.76
2023-05-01T22:02:11.428Z,10.71
2023-05-01T22:07:14.450Z,10.58
2023-05-01T22:12:17.383Z,10.54
2023-05-01T22:17:24.380Z,10.46
2023-05-01T22:22:27.534Z,10.39
2023-05-01T22:27:31.252Z,10.35
2023-05-01T22:32:34.403Z,10.31
2023-05-01T22:37:37.885Z,10.24
2023-05-01T22:42:40.977Z,10.16
2023-05-01T22:47:44.037Z,10.09
2023-05-01T22:52:47.010Z,10.01
2023-05-01T22:57:49.972Z,9.95
2023-05-01T23:02:52.958Z,9.84
2023-05-01T23:07:56.011Z,9.78
2023-05-01T23:13:00.209Z,9.78
2023-05-01T23:18:03.817Z,9.75
2023-05-01T23:23:14.357Z,9.70
2023-05-01T23:28:23.437Z,9.65
2023-05-01T23:33:34.462Z,9.61
2023-05-01T23:38:37.255Z,9.52
2023-05-01T23:43:40.384Z,9.42
2023-05-01T23:48:43.515Z,9.36
2023-05-01T23:53:46.644Z,9.30
2023-05-01T23:58:49.688Z,9.28
